Time;durP1;ratioP1;P1;durP2;ratioP2;P2;SDS_P1;SDS_P2;PMS_P1;PMS_P2;Temp;Humidity;BMP_temperature;BMP_pressure;BME280_temperature;BME280_humidity;BME280_pressure;Samples;Min_cycle;Max_cycle;Signal;HPM_P1;HPM_P2
2022/06/28 00:01:19;;;;;;;8.75;3.60;;;;;;;;;;5155186;27;20043;-70
2022/06/28 00:03:45;;;;;;;5.82;3.08;;;23.80;87.70;;;;;;5155476;27;20081;-71
2022/06/28 00:06:10;;;;;;;6.18;3.60;;;23.80;87.40;;;;;;5152311;27;20074;-72
2022/06/28 00:08:36;;;;;;;5.07;2.92;;;24.00;87.50;;;;;;5154855;27;20046;-71
2022/06/28 00:11:02;;;;;;;6.07;3.10;;;24.00;84.70;;;;;;5155702;27;20043;-70
2022/06/28 00:13:27;;;;;;;6.28;3.17;;;23.60;84.40;;;;;;5155967;27;20053;-67
2022/06/28 00:16:05;;;;;;;7.45;3.25;;;24.00;84.70;;;;;;5134690;27;20113;-72
2022/06/28 00:18:33;;;;;;;5.85;3.03;;;23.60;87.60;;;;;;5154960;27;20065;-72
2022/06/28 00:20:58;;;;;;;7.55;3.15;;;23.60;87.20;;;;;;5155545;27;20043;-72
2022/06/28 00:23:24;;;;;;;6.57;3.40;;;23.90;84.40;;;;;;5155489;27;20051;-72
2022/06/28 00:25:50;;;;;;;6.95;3.25;;;;;;;;;;5154248;27;20479;-68
2022/06/28 00:28:16;;;;;;;6.00;3.08;;;23.80;82.60;;;;;;5154870;27;20038;-72
2022/06/28 00:30:42;;;;;;;5.60;2.78;;;23.80;87.20;;;;;;5135789;27;20548;-71
2022/06/28 00:33:07;;;;;;;6.78;3.00;;;23.80;84.20;;;;;;5155430;27;20055;-72
2022/06/28 00:35:33;;;;;;;5.50;3.33;;;23.60;84.30;;;;;;5154165;27;20041;-72
2022/06/28 00:37:59;;;;;;;5.57;3.10;;;;;;;;;;5115579;28;20134;-72
2022/06/28 00:40:25;;;;;;;7.88;3.30;;;23.60;87.20;;;;;;5134296;28;20495;-72
2022/06/28 00:42:51;;;;;;;7.00;3.50;;;23.70;87.40;;;;;;5134569;28;20039;-72
2022/06/28 00:45:16;;;;;;;6.47;3.90;;;23.80;84.40;;;;;;5143661;27;20399;-72
2022/06/28 00:47:42;;;;;;;8.48;3.40;;;24.00;87.70;;;;;;5121440;27;20046;-72
2022/06/28 00:50:08;;;;;;;6.70;3.42;;;23.70;87.40;;;;;;5158711;27;20039;-72
2022/06/28 00:52:35;;;;;;;5.85;3.40;;;23.70;87.30;;;;;;5159379;27;20045;-71
2022/06/28 00:55:00;;;;;;;7.07;3.47;;;23.80;87.40;;;;;;5159159;27;20407;-72
2022/06/28 00:57:26;;;;;;;7.53;4.00;;;23.80;87.20;;;;;;5158349;27;20043;-71
2022/06/28 00:59:52;;;;;;;6.07;3.55;;;23.90;87.50;;;;;;5158803;27;20078;-71
2022/06/28 01:02:17;;;;;;;5.43;3.25;;;23.70;84.10;;;;;;5159358;27;20039;-72
2022/06/28 01:04:43;;;;;;;5.68;3.13;;;23.70;87.10;;;;;;5140421;27;20071;-72
2022/06/28 01:07:09;;;;;;;8.82;3.70;;;23.90;87.10;;;;;;5139615;27;20047;-71
2022/06/28 01:09:35;;;;;;;5.20;3.10;;;23.80;84.20;;;;;;5158458;27;20035;-72
2022/06/28 01:12:00;;;;;;;8.82;3.95;;;23.90;87.20;;;;;;5158640;27;20043;-72
2022/06/28 01:14:26;;;;;;;6.90;3.40;;;23.80;84.30;;;;;;5140391;27;20061;-71
2022/06/28 01:16:52;;;;;;;8.20;3.70;;;23.70;87.20;;;;;;5159010;27;20102;-72
2022/06/28 01:19:18;;;;;;;10.10;4.05;;;23.70;86.90;;;;;;5156440;27;20500;-70
2022/06/28 01:21:43;;;;;;;6.15;3.20;;;23.50;83.70;;;;;;5140141;27;20056;-72
2022/06/28 01:24:09;;;;;;;7.35;3.42;;;23.50;87.00;;;;;;5140612;27;20483;-72
2022/06/28 01:26:35;;;;;;;6.63;3.75;;;23.80;87.10;;;;;;5140191;27;20057;-72
2022/06/28 01:29:01;;;;;;;5.97;3.60;;;23.50;86.80;;;;;;5104717;27;20472;-72
2022/06/28 01:31:26;;;;;;;6.25;3.47;;;23.70;86.90;;;;;;5139617;27;20039;-73
2022/06/28 01:33:53;;;;;;;6.35;3.90;;;23.90;84.10;;;;;;5140000;27;20085;-71
2022/06/28 01:36:19;;;;;;;5.85;3.28;;;23.80;86.90;;;;;;5157833;27;20070;-72
2022/06/28 01:38:45;;;;;;;8.10;3.63;;;23.80;87.10;;;;;;5106082;27;20119;-72
2022/06/28 01:43:56;;;;;;;6.75;3.72;;;23.60;83.10;;;;;;5141878;27;20049;-72
2022/06/28 01:46:22;;;;;;;5.85;2.90;;;23.70;86.60;;;;;;5139616;27;20066;-72
2022/06/28 01:48:47;;;;;;;6.07;3.38;;;23.50;86.60;;;;;;5139844;27;20047;-72
2022/06/28 01:51:14;;;;;;;7.10;3.38;;;;;;;;;;5135513;27;20050;-70
2022/06/28 01:53:39;;;;;;;6.47;3.70;;;23.60;86.60;;;;;;5138963;27;20085;-72
2022/06/28 01:56:05;;;;;;;9.00;3.65;;;23.50;86.50;;;;;;5158158;27;20082;-72
2022/06/28 01:58:31;;;;;;;8.38;3.60;;;23.50;86.40;;;;;;5157059;27;20035;-72
2022/06/28 02:00:56;;;;;;;7.70;3.60;;;23.60;86.50;;;;;;5121388;27;20057;-72
2022/06/28 02:03:22;;;;;;;7.35;3.33;;;23.50;83.50;;;;;;5139273;27;20053;-72
2022/06/28 02:05:48;;;;;;;5.97;3.05;;;23.50;83.60;;;;;;5139412;27;20068;-71
2022/06/28 02:08:13;;;;;;;9.30;3.20;;;23.40;86.50;;;;;;5155947;27;20039;-71
2022/06/28 02:10:39;;;;;;;8.38;3.38;;;23.30;86.30;;;;;;5157462;27;20067;-72
2022/06/28 02:13:05;;;;;;;7.60;3.38;;;23.20;86.20;;;;;;5156740;27;20035;-72
2022/06/28 02:15:31;;;;;;;6.63;3.58;;;23.40;83.20;;;;;;5157872;27;20042;-71
2022/06/28 02:17:59;;;;;;;7.75;3.40;;;23.30;86.10;;;;;;5157462;27;20108;-72
2022/06/28 02:20:25;;;;;;;6.18;3.42;;;23.30;86.30;;;;;;5139250;27;20050;-72
2022/06/28 02:22:51;;;;;;;6.28;3.53;;;23.60;83.10;;;;;;5156850;27;20484;-72
2022/06/28 02:25:17;;;;;;;5.32;3.30;;;23.60;86.20;;;;;;5138597;27;20046;-72
2022/06/28 02:27:43;;;;;;;6.25;3.65;;;23.40;82.60;;;;;;5157685;27;20455;-72
2022/06/28 02:30:10;;;;;;;4.85;3.28;;;23.40;86.00;;;;;;5157646;27;20041;-72
2022/06/28 02:32:35;;;;;;;6.43;3.70;;;23.50;86.00;;;;;;5155105;27;20035;-72
2022/06/28 02:40:30;;;;;;;8.93;3.60;;;23.40;85.90;;;;;;5138348;27;20399;-72
2022/06/28 02:42:57;;;;;;;5.78;3.65;;;23.40;85.90;;;;;;5157125;27;20091;-73
2022/06/28 02:45:24;;;;;;;5.95;3.17;;;23.30;85.80;;;;;;5155296;27;20060;-72
2022/06/28 02:47:49;;;;;;;7.75;3.25;;;23.50;84.60;;;;;;5156973;27;20045;-72
2022/06/28 02:50:15;;;;;;;5.95;3.50;;;23.30;85.70;;;;;;5156732;27;20047;-71
2022/06/28 02:52:41;;;;;;;6.18;2.88;;;23.40;85.80;;;;;;5117813;27;20495;-72
2022/06/28 02:55:07;;;;;;;6.28;3.22;;;23.20;85.90;;;;;;5124820;27;20083;-71
2022/06/28 02:57:33;;;;;;;8.32;3.80;;;23.40;85.70;;;;;;5155117;27;20046;-72
2022/06/28 02:59:59;;;;;;;7.30;3.13;;;23.20;85.80;;;;;;5139343;27;20379;-72
2022/06/28 03:02:25;;;;;;;4.95;3.08;;;23.40;85.80;;;;;;5155385;27;20046;-72
2022/06/28 03:04:51;;;;;;;5.50;3.20;;;23.10;85.50;;;;;;5154799;27;20039;-72
2022/06/28 03:07:16;;;;;;;6.53;2.97;;;23.40;85.70;;;;;;5156135;27;20057;-71
2022/06/28 03:09:42;;;;;;;8.13;3.55;;;23.50;85.80;;;;;;5135371;27;20415;-71
2022/06/28 03:12:08;;;;;;;7.18;3.22;;;23.40;85.70;;;;;;5117373;27;20049;-71
2022/06/28 03:14:34;;;;;;;6.03;2.88;;;23.20;85.60;;;;;;5117386;27;20047;-71
2022/06/28 03:17:00;;;;;;;6.03;2.70;;;23.10;85.40;;;;;;5151448;27;20133;-72
2022/06/28 03:19:26;;;;;;;5.53;3.10;;;23.20;82.60;;;;;;5156173;27;20050;-72
2022/06/28 03:21:51;;;;;;;5.82;2.97;;;23.30;85.90;;;;;;5138158;27;20114;-72
2022/06/28 03:24:17;;;;;;;5.28;2.67;;;23.00;85.40;;;;;;5137865;27;20043;-71
2022/06/28 03:26:43;;;;;;;6.55;2.95;;;22.60;82.10;;;;;;5104026;27;20038;-68
2022/06/28 03:29:08;;;;;;;6.90;3.22;;;23.30;85.70;;;;;;5133912;27;20462;-72
2022/06/28 03:31:34;;;;;;;7.68;2.65;;;23.10;82.50;;;;;;5135691;27;20488;-72
2022/06/28 03:34:00;;;;;;;5.55;2.60;;;23.40;85.70;;;;;;5117253;27;20125;-71
2022/06/28 03:36:26;;;;;;;8.52;2.90;;;23.40;85.50;;;;;;5146827;27;20043;-71
2022/06/28 03:38:52;;;;;;;4.53;2.40;;;23.20;85.40;;;;;;5155442;27;20030;-71
2022/06/28 03:41:23;;;;;;;8.25;2.80;;;23.10;82.80;;;;;;5137360;27;20492;-70
2022/06/28 03:43:52;;;;;;;6.75;2.80;;;23.30;81.50;;;;;;5105341;27;20122;-72
2022/06/28 03:46:19;;;;;;;6.05;2.95;;;23.40;85.50;;;;;;5155700;27;20049;-71
2022/06/28 03:48:45;;;;;;;7.50;3.08;;;23.30;85.50;;;;;;5154135;27;20061;-71
2022/06/28 03:51:11;;;;;;;6.35;2.90;;;23.20;82.60;;;;;;5136710;27;20042;-72
2022/06/28 03:53:37;;;;;;;7.35;3.00;;;23.30;85.20;;;;;;5155901;27;20054;-70
2022/06/28 03:56:03;;;;;;;8.80;3.13;;;23.20;82.30;;;;;;5155983;27;20400;-70
2022/06/28 03:58:29;;;;;;;6.80;3.03;;;23.10;85.20;;;;;;5135401;27;20471;-72
2022/06/28 04:00:55;;;;;;;5.97;2.53;;;23.40;85.40;;;;;;5153974;27;20050;-70
2022/06/28 04:03:20;;;;;;;6.18;2.47;;;23.30;82.30;;;;;;5155848;27;20038;-72
2022/06/28 04:05:46;;;;;;;5.45;2.83;;;23.40;85.60;;;;;;5155708;27;20046;-72
2022/06/28 04:08:12;;;;;;;4.85;2.60;;;23.20;82.40;;;;;;5155728;27;20042;-66
2022/06/28 04:10:38;;;;;;;6.70;2.50;;;23.40;85.40;;;;;;5134719;27;20042;-74
2022/06/28 04:13:03;;;;;;;5.65;2.70;;;23.40;85.40;;;;;;5155693;27;20060;-75
2022/06/28 04:15:29;;;;;;;5.60;2.30;;;23.40;85.40;;;;;;5137428;27;20035;-73
2022/06/28 04:17:55;;;;;;;4.47;2.53;;;23.70;85.50;;;;;;5119510;27;20115;-75
2022/06/28 04:20:21;;;;;;;7.00;3.03;;;23.80;82.70;;;;;;5152744;27;20084;-74
2022/06/28 04:22:46;;;;;;;7.40;3.03;;;23.50;85.30;;;;;;5153609;27;20039;-76
2022/06/28 04:25:12;;;;;;;5.95;2.78;;;23.70;85.30;;;;;;5136956;27;20039;-66
2022/06/28 04:27:38;;;;;;;7.95;2.95;;;23.30;85.00;;;;;;5136101;27;20126;-70
2022/06/28 04:30:04;;;;;;;7.78;2.90;;;23.40;85.00;;;;;;5150061;27;20106;-73
2022/06/28 04:32:30;;;;;;;5.85;2.78;;;23.50;85.20;;;;;;5155159;27;20043;-73
2022/06/28 04:34:56;;;;;;;5.22;2.90;;;23.60;82.40;;;;;;5155355;27;20039;-73
2022/06/28 04:37:22;;;;;;;6.70;3.03;;;23.50;82.30;;;;;;5155722;27;20102;-74
2022/06/28 04:39:48;;;;;;;6.57;3.22;;;23.60;85.20;;;;;;5135698;27;20500;-74
2022/06/28 04:42:13;;;;;;;4.60;2.55;;;23.90;85.40;;;;;;5154465;27;20042;-74
2022/06/28 04:44:40;;;;;;;6.18;3.00;;;23.50;85.20;;;;;;5155276;27;20042;-71
2022/06/28 04:47:06;;;;;;;4.95;2.58;;;23.70;85.30;;;;;;5132419;27;20122;-74
2022/06/28 04:49:31;;;;;;;5.05;2.63;;;23.80;85.20;;;;;;5137495;27;20070;-74
2022/06/28 04:51:57;;;;;;;6.88;2.50;;;23.80;85.30;;;;;;5154901;27;20502;-74
2022/06/28 04:54:23;;;;;;;4.80;2.50;;;24.20;85.30;;;;;;5155170;27;20043;-75
2022/06/28 04:56:48;;;;;;;6.55;2.65;;;23.90;82.10;;;;;;5154847;27;20047;-72
2022/06/28 04:59:14;;;;;;;4.38;2.30;;;24.10;82.20;;;;;;5155152;27;20035;-74
2022/06/28 05:01:40;;;;;;;7.20;2.63;;;;;;;;;;5153017;27;20119;-75
2022/06/28 05:04:06;;;;;;;6.63;2.75;;;24.30;80.00;;;;;;5152674;27;20060;-75
2022/06/28 05:06:32;;;;;;;5.78;2.92;;;24.30;84.40;;;;;;5154758;27;20510;-73
2022/06/28 05:08:58;;;;;;;7.78;2.95;;;24.30;84.40;;;;;;5138815;27;20078;-75
2022/06/28 05:11:24;;;;;;;7.05;2.78;;;24.20;81.20;;;;;;5136511;27;20105;-72
2022/06/28 05:13:50;;;;;;;6.25;2.75;;;24.40;84.20;;;;;;5154403;27;20066;-72
2022/06/28 05:16:16;;;;;;;5.55;2.55;;;24.40;84.00;;;;;;5155029;27;20191;-72
2022/06/28 05:18:41;;;;;;;5.45;2.35;;;24.40;84.10;;;;;;5135830;27;20102;-72
2022/06/28 05:21:07;;;;;;;5.50;2.20;;;24.70;83.70;;;;;;5154052;27;20047;-75
2022/06/28 05:23:33;;;;;;;4.82;2.25;;;24.80;83.50;;;;;;5153639;27;20070;-74
2022/06/28 05:25:59;;;;;;;5.30;2.35;;;25.00;83.10;;;;;;5154655;27;20518;-73
2022/06/28 05:28:24;;;;;;;5.88;2.60;;;24.90;80.30;;;;;;5154865;27;20039;-75
2022/06/28 05:30:50;;;;;;;4.97;2.33;;;25.20;80.20;;;;;;5136448;27;20095;-69
2022/06/28 05:33:16;;;;;;;6.30;2.38;;;25.20;79.70;;;;;;5158782;27;20306;-74
2022/06/28 05:35:42;;;;;;;7.15;2.10;;;25.20;79.60;;;;;;5158137;27;20066;-74
2022/06/28 05:38:08;;;;;;;5.43;2.20;;;25.50;79.30;;;;;;5158355;27;20041;-74
2022/06/28 05:40:33;;;;;;;4.47;2.33;;;25.50;81.30;;;;;;5158127;27;20137;-74
2022/06/28 05:42:59;;;;;;;3.75;2.17;;;25.80;81.20;;;;;;5158578;27;20043;-75
2022/06/28 05:45:25;;;;;;;4.50;2.20;;;25.60;78.60;;;;;;5157383;27;20052;-75
2022/06/28 05:47:51;;;;;;;5.65;2.30;;;25.80;78.40;;;;;;5157826;27;20043;-74
2022/06/28 05:50:18;;;;;;;5.95;2.30;;;26.00;78.40;;;;;;5158448;27;20069;-71
2022/06/28 05:52:43;;;;;;;5.03;2.15;;;26.40;78.50;;;;;;5158395;27;20046;-75
2022/06/28 05:55:09;;;;;;;5.13;2.10;;;26.40;78.30;;;;;;5158223;27;20098;-74
2022/06/28 05:57:35;;;;;;;7.07;2.33;;;26.10;77.30;;;;;;5136631;27;20488;-74
2022/06/28 06:00:01;;;;;;;6.45;2.55;;;26.40;78.00;;;;;;5158213;27;20046;-75
2022/06/28 06:02:27;;;;;;;3.78;1.90;;;26.20;77.50;;;;;;5157628;27;20050;-69
2022/06/28 06:04:54;;;;;;;6.22;2.17;;;26.50;77.50;;;;;;5139527;27;20047;-72
2022/06/28 06:07:20;;;;;;;5.50;2.22;;;26.60;77.60;;;;;;5138188;27;20117;-74
2022/06/28 06:09:46;;;;;;;4.75;2.38;;;26.60;77.50;;;;;;5156337;27;20043;-75
2022/06/28 06:12:12;;;;;;;4.75;2.10;;;26.40;77.00;;;;;;5157671;27;20043;-71
2022/06/28 06:14:38;;;;;;;6.45;2.53;;;26.30;76.80;;;;;;5157801;27;20095;-63
2022/06/28 06:17:04;;;;;;;4.57;2.13;;;26.50;76.60;;;;;;5156771;27;20039;-75
2022/06/28 06:19:29;;;;;;;4.18;1.90;;;26.50;76.70;;;;;;5157317;27;20517;-74
2022/06/28 06:21:55;;;;;;;4.68;1.75;;;26.80;76.40;;;;;;5157828;27;20125;-74
2022/06/28 06:24:21;;;;;;;4.38;2.08;;;26.70;76.70;;;;;;5157741;27;20031;-72
2022/06/28 06:26:47;;;;;;;4.10;2.13;;;26.80;76.60;;;;;;5133581;27;20055;-73
2022/06/28 06:29:12;;;;;;;5.15;2.20;;;27.00;76.80;;;;;;5153088;27;20043;-63
2022/06/28 06:31:38;;;;;;;5.57;1.92;;;26.80;76.20;;;;;;5157469;27;20126;-62
2022/06/28 06:34:04;;;;;;;4.43;1.95;;;26.90;76.50;;;;;;5121747;27;20577;-62
2022/06/28 06:36:30;;;;;;;3.97;1.85;;;26.90;76.20;;;;;;5157225;27;20057;-62
2022/06/28 06:38:56;;;;;;;3.55;1.75;;;27.00;76.40;;;;;;5155138;27;20062;-62
2022/06/28 06:41:22;;;;;;;3.95;1.90;;;26.90;75.60;;;;;;5139171;27;20134;-62
2022/06/28 06:43:47;;;;;;;6.00;2.10;;;27.00;76.30;;;;;;5156134;27;20080;-62
2022/06/28 06:46:13;;;;;;;4.85;1.88;;;27.00;76.00;;;;;;5138510;27;20106;-62
2022/06/28 06:48:39;;;;;;;4.75;2.00;;;27.00;76.20;;;;;;5136790;27;20110;-63
2022/06/28 06:51:05;;;;;;;4.50;1.80;;;26.90;76.00;;;;;;5156414;27;20053;-63
2022/06/28 06:53:30;;;;;;;6.97;2.10;;;27.10;76.00;;;;;;5121395;27;20047;-62
2022/06/28 06:55:56;;;;;;;4.95;1.98;;;26.90;76.00;;;;;;5138303;27;20054;-62
2022/06/28 06:58:22;;;;;;;3.38;1.67;;;27.20;75.90;;;;;;5157139;27;20035;-71
2022/06/28 07:00:49;;;;;;;5.78;2.30;;;27.10;76.00;;;;;;5154665;27;20384;-62
2022/06/28 07:03:15;;;;;;;6.22;2.15;;;27.20;76.10;;;;;;5156319;27;20038;-62
2022/06/28 07:05:41;;;;;;;4.93;2.00;;;27.30;76.10;;;;;;5156927;27;20087;-62
2022/06/28 07:08:07;;;;;;;4.18;1.83;;;27.30;75.50;;;;;;5138329;27;20391;-62
2022/06/28 07:10:33;;;;;;;5.07;1.88;;;27.30;75.40;;;;;;5156039;27;20039;-63
2022/06/28 07:12:59;;;;;;;3.95;2.00;;;27.00;75.60;;;;;;5156798;27;20047;-62
2022/06/28 07:15:24;;;;;;;7.28;2.00;;;27.30;75.80;;;;;;5156801;27;20035;-62
2022/06/28 07:17:50;;;;;;;4.40;1.98;;;27.10;75.20;;;;;;5156078;27;20058;-62
2022/06/28 07:20:16;;;;;;;4.45;1.88;;;27.60;75.80;;;;;;5156241;27;20058;-64
2022/06/28 07:22:42;;;;;;;3.80;1.73;;;27.30;75.20;;;;;;5154879;27;20396;-69
2022/06/28 07:25:08;;;;;;;4.93;1.90;;;27.50;75.30;;;;;;5132896;27;20128;-62
2022/06/28 07:27:34;;;;;;;5.28;1.92;;;27.50;75.20;;;;;;5156471;27;20501;-67
2022/06/28 07:30:00;;;;;;;5.78;1.98;;;27.70;75.70;;;;;;5153569;27;20126;-67
2022/06/28 07:32:25;;;;;;;5.25;2.13;;;27.40;75.30;;;;;;5136880;27;20095;-65
2022/06/28 07:34:51;;;;;;;5.88;2.33;;;27.40;75.60;;;;;;5153761;27;20078;-65
2022/06/28 07:37:17;;;;;;;5.15;2.28;;;27.60;75.30;;;;;;5136750;27;20043;-69
2022/06/28 07:39:43;;;;;;;7.00;2.53;;;27.40;75.60;;;;;;5155381;27;20549;-64
2022/06/28 07:42:08;;;;;;;6.15;2.00;;;27.80;75.80;;;;;;5155558;27;20043;-63
2022/06/28 07:44:34;;;;;;;4.97;2.35;;;27.50;75.70;;;;;;5156192;27;20035;-63
2022/06/28 07:47:00;;;;;;;6.72;2.70;;;27.70;75.70;;;;;;5156049;27;20043;-63
2022/06/28 07:52:33;;;;;;;7.05;2.40;;;27.70;75.70;;;;;;5155267;27;20031;-63
2022/06/28 07:54:55;;;;;;;7.95;3.55;;;27.80;74.70;;;;;;5154866;27;20038;-70
2022/06/28 07:57:21;;;;;;;8.13;2.75;;;27.80;75.50;;;;;;5155785;27;20115;-71
2022/06/28 07:59:47;;;;;;;9.90;3.28;;;27.80;75.20;;;;;;5133210;27;20050;-71
2022/06/28 08:02:13;;;;;;;8.05;2.85;;;27.70;75.20;;;;;;5147839;27;20069;-66
2022/06/28 08:04:38;;;;;;;9.57;2.63;;;27.60;75.30;;;;;;5137049;27;20088;-64
2022/06/28 08:07:04;;;;;;;6.55;2.42;;;27.40;75.40;;;;;;5155457;27;20050;-62
2022/06/28 08:09:30;;;;;;;9.23;2.30;;;27.50;75.70;;;;;;5136718;27;20121;-63
2022/06/28 08:11:55;;;;;;;6.93;2.22;;;27.40;75.30;;;;;;5107737;27;20483;-63
2022/06/28 08:14:21;;;;;;;6.40;2.10;;;27.60;75.30;;;;;;5155193;27;20464;-63
2022/06/28 08:16:47;;;;;;;9.95;2.20;;;27.30;74.80;;;;;;5137085;27;20091;-63
2022/06/28 08:19:15;;;;;;;5.57;2.13;;;27.50;75.50;;;;;;5155116;27;20491;-64
2022/06/28 08:21:41;;;;;;;6.95;2.47;;;27.40;75.00;;;;;;5155093;27;20118;-62
2022/06/28 08:24:07;;;;;;;8.30;2.25;;;27.60;75.20;;;;;;5140607;27;20043;-62
2022/06/28 08:26:32;;;;;;;8.80;2.60;;;27.60;74.70;;;;;;5134445;27;20450;-63
2022/06/28 08:28:58;;;;;;;7.15;2.03;;;27.50;75.00;;;;;;5083064;28;20078;-63
2022/06/28 08:31:24;;;;;;;7.10;2.50;;;27.40;74.50;;;;;;5144928;27;20126;-63
2022/06/28 08:33:50;;;;;;;5.82;2.05;;;27.30;74.90;;;;;;5117379;27;20495;-63
2022/06/28 08:36:15;;;;;;;9.43;2.10;;;27.50;75.00;;;;;;5136559;27;20548;-62
2022/06/28 08:38:42;;;;;;;5.43;2.10;;;27.30;74.70;;;;;;5136576;27;20126;-62
2022/06/28 08:41:07;;;;;;;6.32;1.92;;;27.20;74.70;;;;;;5136975;27;20035;-66
2022/06/28 08:43:33;;;;;;;7.05;2.00;;;27.60;74.70;;;;;;5135592;27;20065;-63
2022/06/28 08:45:59;;;;;;;7.35;1.90;;;27.40;74.80;;;;;;5153636;27;20094;-67
2022/06/28 08:48:31;;;;;;;5.80;1.85;;;27.50;74.80;;;;;;5136578;27;20387;-67
2022/06/28 08:50:57;;;;;;;5.13;1.63;;;27.20;75.00;;;;;;5149976;27;20049;-63
2022/06/28 08:53:23;;;;;;;5.40;1.80;;;27.30;74.70;;;;;;5112871;27;20122;-63
2022/06/28 08:55:49;;;;;;;7.05;1.95;;;27.20;74.70;;;;;;5153745;27;20554;-63
2022/06/28 08:58:15;;;;;;;5.47;1.80;;;27.20;74.90;;;;;;5155128;27;20399;-63
2022/06/28 09:00:41;;;;;;;4.28;1.70;;;27.50;74.80;;;;;;5136210;27;20035;-63
2022/06/28 09:03:07;;;;;;;5.80;1.70;;;27.30;74.70;;;;;;5137256;27;20180;-63
2022/06/28 09:05:33;;;;;;;7.20;2.00;;;27.20;74.70;;;;;;5153183;27;20058;-63
2022/06/28 09:07:59;;;;;;;5.57;1.60;;;27.20;74.20;;;;;;5140831;27;20085;-63
2022/06/28 09:10:25;;;;;;;5.20;1.75;;;27.00;74.30;;;;;;5140734;27;20528;-63
2022/06/28 09:13:26;;;;;;;5.40;1.40;;;26.90;74.60;;;;;;5140520;27;20045;-66
2022/06/28 09:15:56;;;;;;;7.47;1.58;;;27.10;73.20;;;;;;5073527;28;20071;-66
2022/06/28 09:18:24;;;;;;;8.73;2.00;;;27.30;74.60;;;;;;5063410;28;20052;-65
2022/06/28 09:20:52;;;;;;;6.78;1.75;;;27.30;74.60;;;;;;5077853;28;20044;-64
2022/06/28 09:23:36;;;;;;;6.40;1.70;;;27.00;74.30;;;;;;5060107;28;20048;-63
2022/06/28 09:26:07;;;;;;;5.47;2.05;;;27.10;72.90;;;;;;5074606;28;20056;-72
2022/06/28 09:28:35;;;;;;;6.35;1.80;;;27.30;74.50;;;;;;5086551;28;20109;-73
2022/06/28 09:31:19;;;;;;;5.57;1.83;;;27.20;74.30;;;;;;5094674;28;20088;-75
2022/06/28 09:33:48;;;;;;;5.13;1.88;;;27.60;72.50;;;;;;5094705;28;20151;-70
2022/06/28 09:36:15;;;;;;;4.95;1.70;;;27.20;73.70;;;;;;5094705;28;20044;-73
2022/06/28 09:38:41;;;;;;;4.63;1.40;;;27.30;73.70;;;;;;5068683;28;20457;-65
2022/06/28 09:41:21;;;;;;;9.70;1.88;;;27.40;73.40;;;;;;5071107;28;20085;-70
2022/06/28 09:43:53;;;;;;;6.70;1.60;;;27.20;73.30;;;;;;5095358;28;20044;-71
2022/06/28 09:46:19;;;;;;;6.22;1.65;;;26.90;73.00;;;;;;5093393;28;20549;-63
2022/06/28 09:48:45;;;;;;;6.72;1.98;;;27.10;73.10;;;;;;5071941;28;20036;-64
2022/06/28 09:51:10;;;;;;;4.57;1.38;;;27.10;73.00;;;;;;5112891;27;20079;-63
2022/06/28 09:53:43;;;;;;;7.22;1.80;;;27.00;72.60;;;;;;5122429;27;20038;-71
2022/06/28 09:56:08;;;;;;;7.55;1.80;;;27.40;73.00;;;;;;5140863;27;20420;-75
2022/06/28 09:58:34;;;;;;;4.53;1.70;;;27.20;72.60;;;;;;5139050;27;20034;-75
2022/06/28 10:01:00;;;;;;;4.88;1.40;;;27.00;72.70;;;;;;5139830;27;20042;-66
2022/06/28 10:03:27;;;;;;;7.57;1.60;;;27.20;73.30;;;;;;5137899;27;20047;-63
2022/06/28 10:05:54;;;;;;;5.50;1.60;;;27.10;73.20;;;;;;5139377;27;20039;-63
2022/06/28 10:08:21;;;;;;;5.55;1.55;;;26.80;72.90;;;;;;5158165;27;20034;-73
2022/06/28 10:10:47;;;;;;;6.18;1.60;;;26.90;73.20;;;;;;5123315;27;20050;-73
2022/06/28 10:16:20;;;;;;;4.05;1.55;;;27.10;72.30;;;;;;5157291;27;20380;-63
2022/06/28 10:18:45;;;;;;;6.03;1.67;;;26.80;72.00;;;;;;5122268;27;20047;-63
2022/06/28 10:21:12;;;;;;;7.15;2.20;;;26.90;73.00;;;;;;5139990;27;20076;-70
2022/06/28 10:23:40;;;;;;;7.22;1.70;;;26.90;73.00;;;;;;5157791;27;20038;-67
2022/06/28 10:26:13;;;;;;;6.40;1.73;;;27.00;72.80;;;;;;5122211;27;20061;-71
2022/06/28 10:29:00;;;;;;;4.25;1.80;;;27.00;71.50;;;;;;5155883;27;20043;-63
2022/06/28 10:31:27;;;;;;;6.88;1.75;;;26.80;73.20;;;;;;5132826;27;20055;-64
2022/06/28 10:33:58;;;;;;;6.30;1.80;;;27.00;72.90;;;;;;5157625;27;20077;-69
2022/06/28 10:36:25;;;;;;;6.03;1.70;;;26.90;73.70;;;;;;5139472;27;20117;-70
2022/06/28 10:39:09;;;;;;;6.60;2.03;;;26.70;72.90;;;;;;5157199;27;20038;-73
2022/06/28 10:42:04;;;;;;;7.30;1.88;;;26.50;72.60;;;;;;5136185;27;20055;-68
2022/06/28 10:44:31;;;;;;;4.93;1.70;;;26.60;72.70;;;;;;5157724;27;20047;-69
2022/06/28 10:47:05;;;;;;;5.20;2.13;;;26.80;72.40;;;;;;5157107;27;20058;-74
2022/06/28 10:49:46;;;;;;;5.82;1.80;;;26.80;71.70;;;;;;5137135;27;20043;-68
2022/06/28 10:52:24;;;;;;;6.18;2.00;;;26.60;71.80;;;;;;5152703;27;20080;-66
2022/06/28 10:54:53;;;;;;;6.55;1.90;;;26.70;75.20;;;;;;5157163;27;20038;-69
2022/06/28 10:57:27;;;;;;;6.30;2.05;;;26.50;72.40;;;;;;5156682;27;20492;-71
2022/06/28 10:59:55;;;;;;;7.63;2.13;;;26.20;72.60;;;;;;5156787;27;20039;-62
2022/06/28 11:02:21;;;;;;;5.68;1.85;;;26.50;71.80;;;;;;5135962;27;20039;-63
2022/06/28 11:04:47;;;;;;;5.55;1.45;;;26.40;71.40;;;;;;5155747;27;20099;-62
2022/06/28 11:07:25;;;;;;;5.88;1.88;;;26.40;71.80;;;;;;5156867;27;20039;-62
2022/06/28 11:10:00;;;;;;;5.85;1.90;;;26.30;72.00;;;;;;5156948;27;20372;-63
2022/06/28 11:12:31;;;;;;;6.78;1.85;;;26.50;70.70;;;;;;5137526;27;20085;-62
2022/06/28 11:15:12;;;;;;;6.28;2.17;;;26.20;72.00;;;;;;5156879;27;20052;-62
2022/06/28 11:17:42;;;;;;;5.13;2.00;;;26.30;70.30;;;;;;5137952;27;20400;-62
2022/06/28 11:20:19;;;;;;;7.07;2.00;;;25.90;71.60;;;;;;5138172;27;20059;-62
2022/06/28 11:22:49;;;;;;;7.45;1.75;;;26.10;71.90;;;;;;5123942;27;20510;-62
2022/06/28 11:25:16;;;;;;;5.85;1.75;;;25.80;71.90;;;;;;5155911;27;20047;-62
2022/06/28 11:27:53;;;;;;;7.47;1.90;;;26.00;72.20;;;;;;5136764;27;20055;-63
2022/06/28 11:30:20;;;;;;;4.97;1.58;;;26.00;72.60;;;;;;5138211;27;20046;-62
2022/06/28 11:32:50;;;;;;;8.50;1.75;;;26.10;72.60;;;;;;5137083;27;20061;-63
2022/06/28 11:35:20;;;;;;;8.50;2.22;;;26.10;75.90;;;;;;5155854;27;20057;-63
2022/06/28 11:37:58;;;;;;;5.38;1.83;;;26.20;73.00;;;;;;5155888;27;20053;-62
2022/06/28 11:40:38;;;;;;;7.63;1.88;;;26.10;70.80;;;;;;5131818;27;20535;-62
2022/06/28 11:43:07;;;;;;;7.95;1.95;;;26.30;70.90;;;;;;5155168;27;20041;-63
2022/06/28 11:45:33;;;;;;;8.50;2.00;;;26.30;72.30;;;;;;5128882;27;20047;-62
2022/06/28 11:48:03;;;;;;;6.80;1.92;;;26.20;72.80;;;;;;5144176;27;20151;-63
2022/06/28 11:50:37;;;;;;;5.22;1.70;;;26.30;73.00;;;;;;5156137;27;20105;-63
2022/06/28 11:53:03;;;;;;;4.70;1.67;;;26.40;72.80;;;;;;5104384;27;20082;-63
2022/06/28 11:55:56;;;;;;;6.32;1.85;;;26.20;72.40;;;;;;5137401;27;20081;-63
2022/06/28 11:58:31;;;;;;;;;;;26.20;72.90;;;;;;5131331;27;20042;-67
2022/06/28 12:01:08;;;;;;;7.15;1.77;;;26.20;71.60;;;;;;5131092;27;19928;-63
2022/06/28 12:03:55;;;;;;;7.97;2.03;;;26.60;72.20;;;;;;5134750;27;20121;-64
2022/06/28 12:06:29;;;;;;;7.72;2.42;;;26.50;72.90;;;;;;5077903;28;20055;-64
2022/06/28 12:09:03;;;;;;;8.52;1.80;;;26.40;72.70;;;;;;5092015;28;20059;-64
2022/06/28 12:11:36;;;;;;;6.15;1.52;;;26.50;71.30;;;;;;5090253;28;20151;-63
2022/06/28 12:14:02;;;;;;;;;;;26.40;72.60;;;;;;5092159;28;20122;-64
2022/06/28 12:16:38;;;;;;;7.25;1.60;;;26.10;72.70;;;;;;5090859;28;20440;-63
2022/06/28 12:19:06;;;;;;;5.57;1.77;;;26.40;71.40;;;;;;5089896;28;20510;-63
2022/06/28 12:21:32;;;;;;;8.25;2.17;;;26.40;72.70;;;;;;5090307;28;20086;-64
2022/06/28 12:23:58;;;;;;;7.03;1.90;;;26.40;72.60;;;;;;5091489;28;20052;-63
2022/06/28 12:26:45;;;;;;;5.47;1.52;;;26.70;72.50;;;;;;5091462;28;20513;-64
2022/06/28 12:29:12;;;;;;;7.78;1.90;;;26.40;73.00;;;;;;5066781;28;20049;-62
2022/06/28 12:31:39;;;;;;;4.40;1.65;;;26.40;72.60;;;;;;5054675;28;20061;-63
2022/06/28 12:34:13;;;;;;;8.50;1.73;;;26.50;72.90;;;;;;5088521;28;20044;-64
2022/06/28 12:36:39;;;;;;;5.05;1.73;;;24.90;70.20;;;;;;5074804;28;20056;-64
2022/06/28 12:39:04;;;;;;;4.05;1.33;;;26.70;72.70;;;;;;5092031;28;20463;-64
2022/06/28 12:41:31;;;;;;;5.95;1.77;;;26.30;72.30;;;;;;5090526;28;20047;-62
2022/06/28 12:43:56;;;;;;;13.80;2.00;;;26.50;72.60;;;;;;5125173;27;20062;-63
2022/06/28 12:46:22;;;;;;;7.90;2.22;;;26.30;72.00;;;;;;5126321;27;20065;-62
2022/06/28 12:48:48;;;;;;;8.00;2.13;;;26.60;72.50;;;;;;5136242;27;20484;-66
2022/06/28 12:51:14;;;;;;;16.83;3.10;;;26.40;72.10;;;;;;5154776;27;20117;-62
2022/06/28 12:53:39;;;;;;;11.82;2.70;;;26.50;72.30;;;;;;5154056;27;20556;-64
2022/06/28 12:56:05;;;;;;;9.82;2.72;;;26.30;72.00;;;;;;5136343;27;20042;-62
2022/06/28 12:58:31;;;;;;;10.25;2.33;;;26.40;72.20;;;;;;5154703;27;20030;-62
2022/06/28 13:00:57;;;;;;;6.43;1.70;;;26.50;72.10;;;;;;5154823;27;20502;-65
2022/06/28 13:03:22;;;;;;;7.65;1.95;;;26.50;71.60;;;;;;5136349;27;20106;-64